Terminal Aerodrome Forecast
Issued by NWS

Home | Current Version | Previous Version | Text Only | Print | Product List | Glossary On
Versions: 1 2 3 4 5 6 7 8 9 10 11 12 13 14 15 16 17
000
FTUS44 KTSA 021200 AAA
TAFRVS
TAF AMD
KRVS 021201Z 0212/0312 17011KT P6SM VCTS SCT050CB BKN120 OVC250
     FM021500 18010KT P6SM SCT040 OVC250
      TEMPO 0215/0218 3SM TSRA BKN050CB
     FM021800 22013KT P6SM VCTS BKN050CB
      TEMPO 0218/0222 2SM +TSRA BKN030CB
     FM030000 31011KT P6SM BKN025 OVC050
     FM030400 32006KT P6SM SKC=

USA.gov is the U.S. government's official web portal to all federal, state and local government web resources and services.